Time;durP1;ratioP1;P1;durP2;ratioP2;P2;SDS_P1;SDS_P2;PMS_P1;PMS_P2;Temp;Humidity;BMP_temperature;BMP_pressure;BME280_temperature;BME280_humidity;BME280_pressure;Samples;Min_cycle;Max_cycle;Signal;HPM_P1;HPM_P2
2020/12/22 00:00:18;;;;;;;1.05;0.50;;;;;;;10.46;54.10;100517.91;5065731;28;20476;-68
2020/12/22 00:02:47;;;;;;;0.55;0.43;;;;;;;10.48;53.77;100512.28;5069721;28;20399;-68
2020/12/22 00:05:15;;;;;;;0.82;0.50;;;;;;;10.50;53.64;100513.03;5062462;28;20036;-68
2020/12/22 00:07:43;;;;;;;0.65;0.50;;;;;;;10.52;54.09;100494.63;5071362;28;20068;-68
2020/12/22 00:10:11;;;;;;;1.88;0.55;;;;;;;10.54;54.14;100498.91;5071175;28;20048;-68
2020/12/22 00:12:39;;;;;;;0.50;0.40;;;;;;;10.57;54.35;100489.56;5066275;28;20048;-68
2020/12/22 00:15:07;;;;;;;0.50;0.35;;;;;;;10.60;54.05;100491.16;5071508;28;20044;-68
2020/12/22 00:17:36;;;;;;;1.65;0.70;;;;;;;10.63;54.20;100494.47;5059883;28;20072;-68
2020/12/22 00:20:04;;;;;;;0.30;0.30;;;;;;;10.65;54.25;100486.13;5052076;28;20106;-68
2020/12/22 00:22:32;;;;;;;0.40;0.35;;;;;;;10.68;54.48;100483.13;5066644;28;20041;-68
2020/12/22 00:24:59;;;;;;;0.35;0.30;;;;;;;10.71;54.55;100482.81;5060933;28;20132;-68
2020/12/22 00:27:31;;;;;;;0.73;0.38;;;;;;;10.73;54.16;100483.53;5062408;28;20131;-68
2020/12/22 00:29:58;;;;;;;0.55;0.30;;;;;;;10.77;54.48;100487.75;5053015;28;20044;-68
2020/12/22 00:32:26;;;;;;;0.32;0.30;;;;;;;10.80;54.57;100480.09;5071622;28;20032;-68
2020/12/22 00:34:54;;;;;;;0.30;0.30;;;;;;;10.85;54.38;100486.06;5053060;28;20120;-68
2020/12/22 00:37:21;;;;;;;0.40;0.35;;;;;;;10.89;54.51;100478.41;5066356;28;20045;-68
2020/12/22 00:39:49;;;;;;;0.30;0.30;;;;;;;10.92;54.77;100466.31;5069753;28;20040;-68
2020/12/22 00:42:16;;;;;;;0.60;0.30;;;;;;;10.96;54.54;100471.34;5061525;28;20491;-68
2020/12/22 00:44:43;;;;;;;0.65;0.30;;;;;;;10.98;54.62;100469.31;5052073;28;20102;-68
2020/12/22 00:47:11;;;;;;;0.30;0.28;;;;;;;11.02;54.88;100483.59;5071642;28;20064;-68
2020/12/22 00:49:39;;;;;;;1.30;0.40;;;;;;;11.05;54.72;100477.81;5057211;28;20041;-68
2020/12/22 00:52:07;;;;;;;1.98;0.60;;;;;;;11.09;54.86;100480.13;5074701;28;20044;-68
2020/12/22 00:54:34;;;;;;;0.65;0.40;;;;;;;11.11;54.63;100480.00;5071497;28;20044;-68
2020/12/22 00:57:02;;;;;;;1.48;0.60;;;;;;;11.14;55.31;100486.03;5053640;28;20603;-68
2020/12/22 00:59:46;;;;;;;2.08;0.57;;;;;;;11.17;55.25;100480.28;5040851;28;20068;-68
2020/12/22 01:02:14;;;;;;;1.88;0.65;;;;;;;11.22;55.21;100494.38;5071644;28;20041;-68
2020/12/22 01:04:41;;;;;;;1.73;0.70;;;;;;;11.27;55.79;100486.63;5066914;28;20052;-68
2020/12/22 01:07:09;;;;;;;0.75;0.55;;;;;;;11.32;55.55;100486.16;5061587;28;20048;-68
2020/12/22 01:09:37;;;;;;;1.33;0.60;;;;;;;11.37;55.87;100482.97;5038085;28;20369;-68
2020/12/22 01:12:05;;;;;;;1.55;0.60;;;;;;;11.43;55.85;100486.00;5067028;28;20119;-68
2020/12/22 01:14:33;;;;;;;1.33;0.60;;;;;;;11.46;55.82;100485.69;5056761;28;20044;-68
2020/12/22 01:17:00;;;;;;;0.50;0.40;;;;;;;11.52;55.60;100482.38;5065884;28;20045;-68
2020/12/22 01:19:27;;;;;;;0.60;0.35;;;;;;;11.57;55.83;100485.53;5058487;28;20064;-68
2020/12/22 01:21:56;;;;;;;0.98;0.50;;;;;;;11.64;55.97;100469.34;5084815;28;20120;-68
2020/12/22 01:24:25;;;;;;;0.88;0.40;;;;;;;11.72;55.66;100490.53;5061824;28;20041;-68
2020/12/22 01:26:53;;;;;;;0.20;0.20;;;;;;;11.75;55.40;100482.03;5075729;28;20489;-67
2020/12/22 01:29:20;;;;;;;0.65;0.40;;;;;;;11.79;55.90;100488.91;5066086;28;20040;-68
2020/12/22 01:31:49;;;;;;;0.50;0.35;;;;;;;11.83;56.23;100483.00;5061478;28;20040;-68
2020/12/22 01:34:16;;;;;;;1.55;0.40;;;;;;;11.89;55.81;100485.13;5061896;28;20392;-68
2020/12/22 01:36:44;;;;;;;0.47;0.30;;;;;;;11.95;56.07;100483.69;5068650;28;20037;-68
2020/12/22 01:39:11;;;;;;;0.88;0.40;;;;;;;12.01;56.02;100483.13;5067927;28;20060;-68
2020/12/22 01:41:40;;;;;;;0.40;0.20;;;;;;;12.03;56.12;100475.59;5074755;28;20400;-68
2020/12/22 01:44:08;;;;;;;1.38;0.22;;;;;;;12.08;56.04;100466.94;5074642;28;20044;-68
2020/12/22 01:46:38;;;;;;;0.82;0.40;;;;;;;12.14;55.58;100480.00;5056239;28;20056;-68
2020/12/22 01:49:14;;;;;;;0.30;0.30;;;;;;;12.21;56.07;100472.91;5050818;28;20055;-68
2020/12/22 01:51:42;;;;;;;0.25;0.20;;;;;;;12.26;55.82;100471.44;5084678;28;20051;-68
2020/12/22 01:54:10;;;;;;;0.95;0.35;;;;;;;12.29;55.87;100478.50;5075137;28;20052;-68
2020/12/22 01:56:39;;;;;;;1.00;0.40;;;;;;;12.35;55.63;100483.34;5054585;28;20045;-68
2020/12/22 01:59:06;;;;;;;0.75;0.40;;;;;;;12.37;55.74;100482.19;5066316;28;20049;-68
2020/12/22 02:01:35;;;;;;;0.35;0.30;;;;;;;12.42;55.52;100470.78;5054766;28;20052;-68
2020/12/22 02:04:04;;;;;;;0.30;0.20;;;;;;;12.45;55.61;100467.72;5067415;28;20045;-68
2020/12/22 02:06:33;;;;;;;0.35;0.35;;;;;;;12.46;55.21;100482.28;5071725;28;20051;-68
2020/12/22 02:09:01;;;;;;;0.43;0.30;;;;;;;12.54;55.14;100482.38;5061568;28;20052;-68
2020/12/22 02:11:30;;;;;;;1.20;0.40;;;;;;;12.56;55.32;100475.72;5071947;28;20098;-68
2020/12/22 02:14:00;;;;;;;1.27;0.50;;;;;;;12.59;55.18;100483.66;5054239;28;20048;-68
2020/12/22 02:16:27;;;;;;;1.27;0.50;;;;;;;12.62;55.00;100488.81;5067550;28;20041;-68
2020/12/22 02:18:55;;;;;;;0.98;0.40;;;;;;;12.65;55.33;100490.41;5072720;28;20093;-68
2020/12/22 02:21:24;;;;;;;1.05;0.40;;;;;;;12.66;55.52;100486.66;5080228;28;20130;-68
2020/12/22 02:23:52;;;;;;;1.17;0.50;;;;;;;12.68;55.14;100484.59;5080038;28;20063;-68
2020/12/22 02:26:20;;;;;;;1.08;0.50;;;;;;;12.72;54.71;100491.50;5074063;28;20052;-68
2020/12/22 02:28:48;;;;;;;0.80;0.30;;;;;;;12.71;55.07;100485.16;5071538;28;20036;-68
2020/12/22 02:31:17;;;;;;;0.80;0.40;;;;;;;12.76;55.11;100487.41;5073498;28;20143;-68
2020/12/22 02:33:45;;;;;;;1.00;0.40;;;;;;;12.76;54.93;100477.31;5073950;28;20040;-68
2020/12/22 02:36:14;;;;;;;0.50;0.40;;;;;;;12.78;54.93;100485.38;5073708;28;20064;-68
2020/12/22 02:38:42;;;;;;;0.77;0.38;;;;;;;12.80;54.61;100472.38;5072906;28;20110;-68
2020/12/22 02:41:10;;;;;;;0.65;0.35;;;;;;;12.79;55.12;100484.38;5074010;28;20056;-68
2020/12/22 02:43:37;;;;;;;1.58;0.45;;;;;;;12.79;55.12;100470.66;5061678;28;20488;-68
2020/12/22 02:46:05;;;;;;;0.77;0.52;;;;;;;12.80;54.69;100467.75;5078278;28;20044;-67
2020/12/22 02:48:33;;;;;;;0.30;0.30;;;;;;;12.82;55.18;100467.59;5073642;28;20048;-68
2020/12/22 02:51:00;;;;;;;0.70;0.40;;;;;;;12.85;54.67;100475.50;5082957;28;20109;-68
2020/12/22 02:53:28;;;;;;;0.88;0.45;;;;;;;12.88;55.09;100483.44;5077403;28;20574;-68
2020/12/22 02:55:56;;;;;;;2.08;0.70;;;;;;;12.87;55.40;100497.31;5070518;28;20115;-68
2020/12/22 02:58:24;;;;;;;1.05;0.40;;;;;;;12.87;55.05;100487.19;5059524;28;20049;-67
2020/12/22 03:00:51;;;;;;;0.45;0.30;;;;;;;12.89;55.13;100490.66;5072484;28;20040;-68
2020/12/22 03:03:19;;;;;;;1.65;0.47;;;;;;;12.93;54.90;100489.34;5067118;28;20044;-68
2020/12/22 03:05:46;;;;;;;0.50;0.30;;;;;;;12.94;54.85;100488.31;5055328;28;20472;-68
2020/12/22 03:08:14;;;;;;;1.60;0.68;;;;;;;12.97;55.21;100492.66;5059257;28;20040;-67
2020/12/22 03:10:41;;;;;;;1.52;0.50;;;;;;;12.97;54.56;100484.41;5080906;28;20041;-68
2020/12/22 03:13:10;;;;;;;1.75;0.40;;;;;;;12.99;54.96;100480.50;5061122;28;20377;-67
2020/12/22 03:15:37;;;;;;;0.82;0.25;;;;;;;13.01;54.87;100496.78;5066824;28;20041;-68
2020/12/22 03:18:05;;;;;;;0.57;0.28;;;;;;;12.99;54.98;100466.78;5052930;28;20056;-68
2020/12/22 03:20:32;;;;;;;0.57;0.40;;;;;;;13.02;55.01;100487.53;5075332;28;20115;-67
2020/12/22 03:22:59;;;;;;;0.68;0.30;;;;;;;13.03;54.88;100494.75;5071197;28;20040;-68
2020/12/22 03:25:27;;;;;;;0.65;0.50;;;;;;;13.03;54.63;100497.50;5070388;28;20038;-68
2020/12/22 03:27:55;;;;;;;1.55;0.45;;;;;;;13.06;54.91;100488.97;5069386;28;20052;-67
2020/12/22 03:30:23;;;;;;;0.73;0.30;;;;;;;13.06;54.67;100489.84;5054940;28;20047;-67
2020/12/22 03:32:50;;;;;;;0.73;0.50;;;;;;;13.06;54.62;100489.84;5052670;28;20068;-68
2020/12/22 03:35:17;;;;;;;1.15;0.50;;;;;;;13.05;54.98;100481.75;5048659;28;20044;-67
2020/12/22 03:37:44;;;;;;;0.68;0.47;;;;;;;13.06;54.77;100489.84;5061607;28;20044;-66
2020/12/22 03:40:13;;;;;;;1.63;0.50;;;;;;;13.06;54.71;100491.72;5070115;28;20048;-67
2020/12/22 03:42:41;;;;;;;0.32;0.32;;;;;;;13.08;54.77;100478.69;5061000;28;20045;-67
2020/12/22 03:45:09;;;;;;;0.85;0.40;;;;;;;13.09;54.71;100494.13;5070954;28;20103;-68
2020/12/22 03:47:37;;;;;;;0.50;0.30;;;;;;;13.11;55.15;100495.69;5060519;28;20048;-68
2020/12/22 03:50:21;;;;;;;1.27;0.45;;;;;;;13.11;54.43;100501.19;5074019;28;20045;-67
2020/12/22 03:52:49;;;;;;;0.73;0.40;;;;;;;13.13;54.64;100493.66;5074880;28;20033;-67
2020/12/22 03:55:17;;;;;;;0.88;0.50;;;;;;;13.15;54.87;100505.38;5053980;28;20047;-67
2020/12/22 03:57:44;;;;;;;0.60;0.30;;;;;;;13.18;54.86;100501.41;5072492;28;20068;-67
2020/12/22 04:00:14;;;;;;;1.27;0.70;;;;;;;13.21;54.57;100511.22;5058317;28;20116;-67
2020/12/22 04:02:42;;;;;;;1.02;0.40;;;;;;;13.24;54.48;100513.69;5070957;28;20059;-68
2020/12/22 04:05:10;;;;;;;0.85;0.40;;;;;;;13.25;54.41;100507.16;5082592;28;20495;-67
2020/12/22 04:07:37;;;;;;;0.65;0.40;;;;;;;13.28;54.65;100504.09;5079618;28;20056;-68
2020/12/22 04:10:07;;;;;;;1.27;0.40;;;;;;;13.30;54.35;100497.41;5090110;28;20086;-68
2020/12/22 04:12:36;;;;;;;1.65;0.50;;;;;;;13.28;54.71;100502.19;5072264;28;20048;-67
2020/12/22 04:15:05;;;;;;;1.25;0.40;;;;;;;13.30;54.36;100500.16;5088128;28;20507;-67
2020/12/22 04:17:47;;;;;;;1.23;0.40;;;;;;;13.32;54.65;100500.00;5059154;28;20068;-67
2020/12/22 04:20:14;;;;;;;0.65;0.40;;;;;;;13.33;54.80;100505.34;5073190;28;20048;-68
2020/12/22 04:22:42;;;;;;;1.48;0.50;;;;;;;13.36;54.49;100509.66;5052088;28;20048;-68
2020/12/22 04:25:09;;;;;;;0.45;0.30;;;;;;;13.36;54.53;100505.00;5053539;28;20098;-67
2020/12/22 04:27:36;;;;;;;0.45;0.30;;;;;;;13.37;54.35;100506.75;5071779;28;20132;-67
2020/12/22 04:30:03;;;;;;;1.20;0.40;;;;;;;13.40;54.29;100494.59;5071378;28;20467;-68
2020/12/22 04:32:31;;;;;;;1.33;0.40;;;;;;;13.42;54.71;100518.09;5070266;28;20297;-68
2020/12/22 04:34:59;;;;;;;0.98;0.30;;;;;;;13.45;54.56;100512.31;5044304;28;20049;-68
2020/12/22 04:37:27;;;;;;;0.38;0.30;;;;;;;13.45;54.24;100530.69;5067621;28;20048;-67
2020/12/22 04:39:54;;;;;;;0.85;0.50;;;;;;;13.45;54.13;100516.94;5081696;28;20099;-68
2020/12/22 04:42:22;;;;;;;1.08;0.50;;;;;;;13.48;54.51;100527.63;5061449;28;20483;-67
2020/12/22 04:44:53;;;;;;;0.88;0.60;;;;;;;13.48;54.50;100528.50;5081193;28;20072;-67
2020/12/22 04:47:25;;;;;;;1.80;0.45;;;;;;;13.47;54.22;100535.00;5084227;28;20071;-67
2020/12/22 04:49:58;;;;;;;0.67;0.40;;;;;;;13.48;54.43;100533.97;5079705;28;20143;-67
2020/12/22 04:52:26;;;;;;;1.65;0.45;;;;;;;13.44;54.64;100535.31;5082513;28;20321;-67
2020/12/22 04:54:53;;;;;;;1.10;0.45;;;;;;;13.47;54.56;100537.75;5066175;28;20047;-67
2020/12/22 04:57:30;;;;;;;1.13;0.52;;;;;;;13.49;54.83;100543.97;5071295;28;20068;-67
2020/12/22 04:59:58;;;;;;;0.70;0.50;;;;;;;13.47;54.16;100542.38;5065325;28;20124;-67
2020/12/22 05:02:28;;;;;;;0.88;0.50;;;;;;;13.48;54.60;100539.47;5073207;28;21241;-67
2020/12/22 05:04:56;;;;;;;0.70;0.30;;;;;;;13.48;54.18;100546.84;5070681;28;20036;-67
2020/12/22 05:07:24;;;;;;;0.82;0.43;;;;;;;13.50;54.41;100547.56;5072544;28;20491;-67
2020/12/22 05:09:52;;;;;;;0.93;0.47;;;;;;;13.48;54.47;100539.47;5063497;28;20427;-67
2020/12/22 05:12:19;;;;;;;1.15;0.50;;;;;;;13.48;54.20;100552.34;5074361;28;20036;-67
2020/12/22 05:14:46;;;;;;;1.00;0.60;;;;;;;13.47;54.35;100553.38;5068494;28;20503;-67
2020/12/22 05:17:14;;;;;;;1.40;0.75;;;;;;;13.50;54.33;100559.38;5068912;28;20040;-67
2020/12/22 05:19:42;;;;;;;1.98;0.52;;;;;;;13.53;54.08;100561.84;5064476;28;20048;-67
2020/12/22 05:22:10;;;;;;;0.73;0.43;;;;;;;13.51;54.60;100563.88;5084078;28;20061;-67
2020/12/22 05:24:38;;;;;;;0.73;0.50;;;;;;;13.56;54.25;100563.41;5060902;28;20052;-67
2020/12/22 05:27:07;;;;;;;2.22;0.63;;;;;;;13.56;54.51;100566.16;5069250;28;20131;-67
2020/12/22 05:29:36;;;;;;;1.15;0.50;;;;;;;13.57;54.25;100564.28;5074415;28;20471;-67
2020/12/22 05:32:04;;;;;;;1.45;0.90;;;;;;;13.57;54.42;100565.16;5068633;28;20179;-67
2020/12/22 05:34:32;;;;;;;1.55;0.77;;;;;;;13.59;54.13;100564.97;5069847;28;20472;-67
2020/12/22 05:36:59;;;;;;;1.23;0.60;;;;;;;13.60;54.30;100567.56;5037050;28;20068;-67
2020/12/22 05:39:27;;;;;;;0.82;0.45;;;;;;;13.58;54.18;100580.63;5070877;28;20106;-67
2020/12/22 05:41:54;;;;;;;1.23;0.55;;;;;;;13.59;54.10;100576.81;5074816;28;20059;-67
2020/12/22 05:44:26;;;;;;;1.23;0.60;;;;;;;13.62;54.63;100583.88;5060868;28;20032;-67
2020/12/22 05:46:59;;;;;;;2.50;0.70;;;;;;;13.61;54.16;100584.91;5056507;28;20044;-67
2020/12/22 05:49:26;;;;;;;1.33;0.52;;;;;;;13.59;54.32;100590.56;5070709;28;20076;-67
2020/12/22 05:51:55;;;;;;;1.10;0.50;;;;;;;13.65;54.51;100584.44;5086405;28;20036;-67
2020/12/22 05:54:23;;;;;;;1.52;0.63;;;;;;;13.63;54.09;100591.13;5073134;28;20044;-67
2020/12/22 05:56:50;;;;;;;0.82;0.30;;;;;;;13.63;54.06;100586.47;5074543;28;20040;-67
2020/12/22 05:59:18;;;;;;;2.22;0.60;;;;;;;13.66;54.64;100599.06;5058503;28;20045;-67
2020/12/22 06:01:46;;;;;;;1.98;0.70;;;;;;;13.66;54.06;100585.31;5061308;28;20068;-67
2020/12/22 06:04:17;;;;;;;1.52;0.60;;;;;;;13.69;54.61;100591.34;5060512;28;20033;-67
2020/12/22 06:06:45;;;;;;;2.38;0.90;;;;;;;13.69;54.53;100604.22;5074192;28;20040;-67
2020/12/22 06:09:14;;;;;;;2.13;0.65;;;;;;;13.68;54.43;100603.34;5072867;28;20047;-67
2020/12/22 06:11:41;;;;;;;2.25;0.60;;;;;;;13.69;54.50;100599.59;5059666;28;20045;-67
2020/12/22 06:14:09;;;;;;;1.00;0.60;;;;;;;13.68;54.20;100611.59;5085013;28;20406;-67
2020/12/22 06:16:37;;;;;;;1.10;0.60;;;;;;;13.71;54.15;100626.91;5079690;28;20037;-67
2020/12/22 06:19:07;;;;;;;1.45;0.70;;;;;;;13.73;54.21;100619.38;5051679;28;20428;-67
2020/12/22 06:21:36;;;;;;;1.35;0.60;;;;;;;13.70;54.25;100631.56;5082243;28;20033;-67
2020/12/22 06:24:03;;;;;;;0.98;0.50;;;;;;;13.72;53.94;100636.91;5062784;28;20056;-67
2020/12/22 06:26:32;;;;;;;0.88;0.52;;;;;;;13.70;54.27;100630.69;5060242;28;20399;-67
2020/12/22 06:28:59;;;;;;;1.52;0.80;;;;;;;13.70;54.50;100633.44;5071008;28;20052;-67
2020/12/22 06:31:33;;;;;;;1.15;0.60;;;;;;;13.74;54.62;100627.47;5067261;28;20468;-66
2020/12/22 06:34:00;;;;;;;2.03;0.60;;;;;;;13.70;54.61;100636.19;5067649;28;20124;-67
2020/12/22 06:36:29;;;;;;;0.88;0.52;;;;;;;13.73;53.93;100641.38;5061503;28;20481;-67
2020/12/22 06:38:58;;;;;;;2.58;0.73;;;;;;;13.72;54.71;100642.41;5072291;28;20040;-67
2020/12/22 06:41:44;;;;;;;1.07;0.50;;;;;;;13.70;54.80;100633.44;5048935;28;20051;-67
2020/12/22 06:44:17;;;;;;;1.50;0.50;;;;;;;13.73;54.20;100644.13;5069085;28;20045;-67
2020/12/22 06:46:51;;;;;;;3.08;0.60;;;;;;;13.72;54.41;100639.66;5069657;28;20472;-67
2020/12/22 06:49:40;;;;;;;1.98;0.52;;;;;;;13.72;54.44;100646.00;5072251;28;20043;-68
2020/12/22 06:52:36;;;;;;;1.33;0.70;;;;;;;13.71;54.19;100644.28;5069312;28;20523;-67
2020/12/22 06:55:06;;;;;;;1.85;0.60;;;;;;;13.73;54.21;100649.63;5066989;28;20545;-67
2020/12/22 06:57:43;;;;;;;1.88;0.80;;;;;;;13.76;54.74;100646.53;5071482;28;20068;-67
2020/12/22 07:00:24;;;;;;;2.35;0.98;;;;;;;13.76;54.74;100663.91;5071821;28;20102;-70
2020/12/22 07:03:11;;;;;;;2.15;1.00;;;;;;;13.71;54.36;100660.78;5069220;28;20441;-69
2020/12/22 07:05:40;;;;;;;1.77;1.00;;;;;;;13.74;54.52;100667.84;5071470;28;20048;-69
2020/12/22 07:08:08;;;;;;;1.92;0.90;;;;;;;13.74;54.38;100657.72;5050828;28;20123;-68
2020/12/22 07:10:38;;;;;;;2.17;1.00;;;;;;;13.74;54.43;100670.59;5053406;28;20044;-68
2020/12/22 07:13:08;;;;;;;1.92;0.80;;;;;;;13.73;54.52;100685.38;5069703;28;20115;-68
2020/12/22 07:15:36;;;;;;;2.10;0.70;;;;;;;13.71;54.71;100680.00;5071873;28;20037;-68
2020/12/22 07:18:06;;;;;;;1.45;0.70;;;;;;;13.71;54.05;100691.00;5053472;28;20041;-68
2020/12/22 07:20:34;;;;;;;1.63;0.77;;;;;;;13.70;54.56;100692.03;5068665;28;20040;-68
2020/12/22 07:23:03;;;;;;;1.65;0.60;;;;;;;13.70;54.34;100683.78;5059009;28;20115;-68
2020/12/22 07:25:36;;;;;;;0.60;0.45;;;;;;;13.68;54.48;100679.44;5081247;28;20133;-68
2020/12/22 07:28:04;;;;;;;0.77;0.50;;;;;;;13.65;54.16;100697.16;5071529;28;20055;-67
2020/12/22 07:30:32;;;;;;;1.65;0.47;;;;;;;13.67;54.67;100699.72;5071671;28;20483;-68
2020/12/22 07:33:01;;;;;;;1.70;0.80;;;;;;;13.63;54.60;100699.19;5072025;28;20044;-67
2020/12/22 07:35:29;;;;;;;1.58;0.80;;;;;;;13.62;54.39;100707.56;5071899;28;20044;-68
2020/12/22 07:38:02;;;;;;;0.47;0.47;;;;;;;13.64;54.47;100705.53;5063978;28;20049;-67
2020/12/22 07:40:35;;;;;;;0.88;0.60;;;;;;;13.60;54.38;100704.97;5068938;28;20079;-67
2020/12/22 07:43:05;;;;;;;1.63;0.60;;;;;;;13.61;54.61;100692.09;5059059;28;20037;-68
2020/12/22 07:45:32;;;;;;;0.82;0.50;;;;;;;13.59;54.25;100705.13;5061402;28;20047;-68
2020/12/22 07:48:00;;;;;;;1.33;0.45;;;;;;;13.59;54.03;100711.47;5050975;28;20125;-68
2020/12/22 07:50:27;;;;;;;3.28;0.82;;;;;;;13.59;54.57;100721.63;5061877;28;20087;-68
2020/12/22 07:52:58;;;;;;;2.22;1.08;;;;;;;13.61;54.47;100719.59;5071041;28;20040;-68
2020/12/22 07:55:26;;;;;;;2.72;1.05;;;;;;;13.62;54.84;100732.31;5070728;28;20139;-68
2020/12/22 07:57:55;;;;;;;2.90;0.98;;;;;;;13.64;54.58;100731.16;5069632;28;20052;-68
2020/12/22 08:00:24;;;;;;;2.28;1.02;;;;;;;13.71;55.01;100726.75;5067766;28;20067;-68
2020/12/22 08:02:51;;;;;;;2.63;0.95;;;;;;;13.77;55.09;100739.00;5070680;28;20090;-68
2020/12/22 08:05:19;;;;;;;3.05;1.65;;;;;;;13.83;55.02;100741.16;5071036;28;20440;-67
2020/12/22 08:07:52;;;;;;;2.33;0.90;;;;;;;13.95;54.69;100744.53;5061317;28;20395;-68
2020/12/22 08:10:20;;;;;;;2.10;0.85;;;;;;;14.00;54.81;100754.03;5061245;28;20352;-67
2020/12/22 08:12:53;;;;;;;1.20;0.60;;;;;;;14.09;54.19;100755.84;5074557;28;20130;-67
2020/12/22 08:15:20;;;;;;;1.25;0.70;;;;;;;14.11;53.82;100766.69;5070829;28;20132;-67
2020/12/22 08:17:55;;;;;;;1.02;0.70;;;;;;;14.16;53.88;100773.44;5070149;28;20377;-67
2020/12/22 08:20:23;;;;;;;1.77;0.77;;;;;;;14.15;53.78;100776.38;5070197;28;20044;-67
2020/12/22 08:22:51;;;;;;;1.45;0.60;;;;;;;14.17;53.17;100768.81;5070868;28;20124;-68
2020/12/22 08:25:18;;;;;;;2.28;0.68;;;;;;;14.15;52.92;100771.75;5067398;28;20051;-67
2020/12/22 08:27:46;;;;;;;1.58;0.63;;;;;;;14.14;53.09;100778.25;5072436;28;20067;-68
2020/12/22 08:30:18;;;;;;;1.60;0.75;;;;;;;14.15;52.98;100782.75;5067035;28;20487;-68
2020/12/22 08:32:47;;;;;;;1.50;0.75;;;;;;;14.09;52.69;100786.09;5066937;28;20120;-68
2020/12/22 08:35:20;;;;;;;0.88;0.50;;;;;;;14.10;52.81;100793.34;5073798;28;20407;-67
2020/12/22 08:37:48;;;;;;;1.30;0.50;;;;;;;14.06;52.71;100785.56;5052177;28;20067;-67
2020/12/22 08:40:26;;;;;;;1.05;0.60;;;;;;;14.07;52.63;100795.56;5068142;28;20060;-67
2020/12/22 08:42:54;;;;;;;1.08;0.50;;;;;;;14.01;53.07;100797.03;5068082;28;20044;-67
2020/12/22 08:45:21;;;;;;;1.77;0.70;;;;;;;14.00;52.90;100789.78;5072918;28;20047;-67
2020/12/22 08:47:52;;;;;;;0.55;0.40;;;;;;;14.01;52.93;100797.03;5068513;28;20040;-67
2020/12/22 08:50:21;;;;;;;1.17;0.60;;;;;;;13.98;52.70;100811.09;5061887;28;20399;-67
2020/12/22 08:52:49;;;;;;;1.73;0.70;;;;;;;13.97;52.70;100814.88;5069181;28;20128;-67
2020/12/22 08:55:16;;;;;;;1.55;0.60;;;;;;;13.95;53.06;100818.78;5067042;28;20119;-67
2020/12/22 08:57:43;;;;;;;1.58;0.80;;;;;;;13.93;52.60;100818.94;5070862;28;20103;-67
2020/12/22 09:00:13;;;;;;;1.27;0.57;;;;;;;13.92;52.60;100793.31;5068670;28;20048;-67
2020/12/22 09:02:41;;;;;;;0.98;0.63;;;;;;;13.90;53.34;100835.78;5067582;28;20467;-67
2020/12/22 09:05:14;;;;;;;1.15;0.70;;;;;;;13.91;53.08;100835.59;5065863;28;20081;-67
2020/12/22 09:07:43;;;;;;;1.10;0.68;;;;;;;13.89;53.21;100834.03;5069953;28;20041;-67
2020/12/22 09:10:11;;;;;;;0.60;0.60;;;;;;;13.88;53.46;100841.41;5070219;28;20467;-67
2020/12/22 09:12:38;;;;;;;0.93;0.60;;;;;;;13.88;53.43;100833.16;5068049;28;20045;-67
2020/12/22 09:15:07;;;;;;;1.15;0.63;;;;;;;13.88;53.47;100824.91;5067090;28;21266;-67
2020/12/22 09:17:35;;;;;;;1.40;0.90;;;;;;;13.87;53.30;100831.44;5069420;28;20045;-67
2020/12/22 09:20:05;;;;;;;1.33;0.80;;;;;;;13.86;53.56;100842.53;5071449;28;20072;-66
2020/12/22 09:22:34;;;;;;;0.93;0.70;;;;;;;13.86;53.76;100843.44;5071267;28;20045;-67
2020/12/22 09:25:07;;;;;;;2.00;0.80;;;;;;;13.87;53.61;100844.31;5071090;28;20164;-67
2020/12/22 09:27:35;;;;;;;1.45;0.90;;;;;;;13.83;53.40;100845.63;5063977;28;20045;-68
2020/12/22 09:30:05;;;;;;;1.27;0.57;;;;;;;13.82;53.21;100860.38;5053965;28;20128;-67
2020/12/22 09:32:38;;;;;;;0.80;0.50;;;;;;;13.79;53.55;100855.19;5042776;28;20040;-65
2020/12/22 09:35:06;;;;;;;0.70;0.70;;;;;;;13.81;53.21;100859.53;5084837;28;20047;-67
2020/12/22 09:37:34;;;;;;;0.95;0.47;;;;;;;13.82;53.17;100864.00;5074726;28;20044;-66
2020/12/22 09:40:03;;;;;;;1.10;0.60;;;;;;;13.84;53.24;100869.31;5058201;28;20124;-67
2020/12/22 09:42:31;;;;;;;1.33;0.70;;;;;;;13.81;53.08;100873.28;5071322;28;20080;-66
2020/12/22 09:44:58;;;;;;;1.23;0.60;;;;;;;13.83;52.98;100884.94;5072362;28;20127;-67
2020/12/22 09:47:26;;;;;;;1.48;0.60;;;;;;;13.84;53.00;100872.06;5066861;28;20403;-67
2020/12/22 09:49:54;;;;;;;0.85;0.40;;;;;;;13.85;53.07;100890.31;5078585;28;20379;-67
2020/12/22 09:52:21;;;;;;;0.60;0.50;;;;;;;13.84;52.80;100885.81;5068605;28;20041;-66
2020/12/22 09:54:50;;;;;;;1.08;0.50;;;;;;;13.85;53.11;100891.19;5054606;28;20045;-66
2020/12/22 09:57:17;;;;;;;1.60;0.82;;;;;;;13.87;52.36;100888.31;5072959;28;20116;-67
2020/12/22 09:59:45;;;;;;;1.58;0.80;;;;;;;13.84;52.79;100892.19;5083532;28;20036;-68
2020/12/22 10:02:12;;;;;;;0.95;0.57;;;;;;;13.87;52.33;100896.56;5078706;28;20132;-67
2020/12/22 10:04:39;;;;;;;1.38;0.60;;;;;;;13.87;52.77;100900.19;5074427;28;20060;-67
2020/12/22 10:07:08;;;;;;;1.63;0.68;;;;;;;13.86;52.32;100903.94;5069433;28;20041;-67
2020/12/22 10:09:35;;;;;;;0.88;0.50;;;;;;;13.88;52.23;100904.66;5064137;28;20135;-67
2020/12/22 10:12:03;;;;;;;1.50;0.47;;;;;;;13.89;52.43;100908.28;5048805;28;20043;-67
2020/12/22 10:14:32;;;;;;;1.75;0.68;;;;;;;13.91;52.21;100909.00;5079716;28;20036;-66
2020/12/22 10:17:00;;;;;;;0.88;0.50;;;;;;;13.88;52.23;100903.78;5056054;28;20041;-66
2020/12/22 10:19:27;;;;;;;1.05;0.52;;;;;;;13.88;52.21;100904.66;5060611;28;20044;-66
2020/12/22 10:21:55;;;;;;;1.65;0.50;;;;;;;13.88;52.23;100907.41;5069881;28;20041;-66
2020/12/22 10:24:35;;;;;;;1.05;0.50;;;;;;;13.87;52.17;100911.19;5072716;28;20037;-68
2020/12/22 10:27:03;;;;;;;0.50;0.40;;;;;;;13.88;52.08;100910.16;5073227;28;20098;-68
2020/12/22 10:29:32;;;;;;;0.93;0.65;;;;;;;13.87;52.21;100913.94;5068372;28;20036;-68
2020/12/22 10:31:59;;;;;;;0.85;0.65;;;;;;;13.85;52.71;100910.44;5072808;28;20144;-67
2020/12/22 10:34:26;;;;;;;1.10;0.90;;;;;;;13.85;53.10;100918.69;5071740;28;20123;-67
2020/12/22 10:36:55;;;;;;;1.55;0.73;;;;;;;13.85;52.88;100907.69;5069739;28;20036;-67
2020/12/22 10:39:22;;;;;;;1.60;0.90;;;;;;;13.83;52.72;100904.19;5062790;28;20049;-67
2020/12/22 10:41:49;;;;;;;2.63;0.85;;;;;;;13.85;53.14;100915.06;5064139;28;20032;-68
2020/12/22 10:44:16;;;;;;;1.33;0.60;;;;;;;13.84;52.80;100910.56;5072486;28;20071;-67
2020/12/22 10:46:47;;;;;;;0.98;0.75;;;;;;;13.85;53.17;100912.31;5073842;28;20055;-69
2020/12/22 10:49:14;;;;;;;1.00;0.75;;;;;;;13.83;52.68;100911.63;5069757;28;20041;-69
2020/12/22 10:51:41;;;;;;;1.90;0.60;;;;;;;13.85;52.88;100918.69;5085277;28;20059;-68
2020/12/22 10:54:10;;;;;;;1.13;0.70;;;;;;;13.85;52.80;100921.41;5061820;28;20041;-68
2020/12/22 10:56:37;;;;;;;1.98;0.90;;;;;;;13.85;53.46;100915.94;5066024;28;20052;-68
2020/12/22 10:59:04;;;;;;;2.42;0.90;;;;;;;13.85;53.35;100915.94;5054810;28;20054;-69
2020/12/22 11:01:33;;;;;;;2.17;0.80;;;;;;;13.90;53.35;100924.63;5043680;28;20045;-68
2020/12/22 11:04:01;;;;;;;1.30;0.50;;;;;;;13.95;53.11;100931.53;5070370;28;20033;-68
2020/12/22 11:06:37;;;;;;;0.98;0.60;;;;;;;13.98;53.41;100928.50;5063465;28;20041;-67
2020/12/22 11:09:05;;;;;;;0.85;0.45;;;;;;;14.00;53.32;100935.56;5056368;28;20048;-68
2020/12/22 11:11:32;;;;;;;1.52;0.70;;;;;;;14.03;52.45;100929.75;5073048;28;20123;-68
2020/12/22 11:13:59;;;;;;;0.63;0.50;;;;;;;14.07;52.31;100931.19;5072103;28;20605;-68
2020/12/22 11:16:28;;;;;;;0.93;0.40;;;;;;;14.11;52.22;100940.00;5029044;28;20049;-69
2020/12/22 11:18:56;;;;;;;1.30;0.50;;;;;;;14.15;52.14;100927.69;5063290;28;20095;-68
2020/12/22 11:21:25;;;;;;;2.65;0.50;;;;;;;14.19;52.35;100929.09;5082003;28;20052;-68
2020/12/22 11:23:52;;;;;;;1.23;0.40;;;;;;;14.20;51.94;100931.69;5069295;28;20073;-68
2020/12/22 11:26:21;;;;;;;0.70;0.40;;;;;;;14.26;52.40;100943.97;5053709;28;20047;-68
2020/12/22 11:28:50;;;;;;;0.70;0.50;;;;;;;14.28;51.79;100942.78;5073133;28;20123;-68
2020/12/22 11:31:17;;;;;;;1.70;0.55;;;;;;;14.32;52.30;100937.00;5070696;28;20149;-68